sensor_id;sensor_type;location;lat;lon;timestamp;P1;durP1;ratioP1;P2;durP2;ratioP2
79640;SDS011;69115;49.904;14.390;2023-07-13T00:01:18;9.23;;;6.88;;
79640;SDS011;69115;49.904;14.390;2023-07-13T00:03:44;11.70;;;6.82;;
79640;SDS011;69115;49.904;14.390;2023-07-13T00:06:09;10.13;;;7.20;;
79640;SDS011;69115;49.904;14.390;2023-07-13T00:08:35;10.05;;;6.75;;
79640;SDS011;69115;49.904;14.390;2023-07-13T00:11:00;7.97;;;5.93;;
79640;SDS011;69115;49.904;14.390;2023-07-13T00:13:27;6.80;;;5.53;;
79640;SDS011;69115;49.904;14.390;2023-07-13T00:15:53;8.40;;;5.90;;
79640;SDS011;69115;49.904;14.390;2023-07-13T00:18:19;9.10;;;6.07;;
79640;SDS011;69115;49.904;14.390;2023-07-13T00:20:45;9.93;;;6.72;;
79640;SDS011;69115;49.904;14.390;2023-07-13T00:23:11;9.43;;;7.13;;
79640;SDS011;69115;49.904;14.390;2023-07-13T00:25:36;9.68;;;6.15;;
79640;SDS011;69115;49.904;14.390;2023-07-13T00:28:02;8.75;;;6.13;;
79640;SDS011;69115;49.904;14.390;2023-07-13T00:30:27;9.15;;;6.38;;
79640;SDS011;69115;49.904;14.390;2023-07-13T00:32:53;8.60;;;6.63;;
79640;SDS011;69115;49.904;14.390;2023-07-13T00:35:18;9.00;;;6.18;;
79640;SDS011;69115;49.904;14.390;2023-07-13T00:37:44;8.73;;;6.82;;
79640;SDS011;69115;49.904;14.390;2023-07-13T00:40:10;9.80;;;6.82;;
79640;SDS011;69115;49.904;14.390;2023-07-13T00:42:37;7.53;;;5.88;;
79640;SDS011;69115;49.904;14.390;2023-07-13T00:47:37;6.93;;;5.57;;
79640;SDS011;69115;49.904;14.390;2023-07-13T00:50:04;7.60;;;6.10;;
79640;SDS011;69115;49.904;14.390;2023-07-13T00:52:31;10.25;;;7.00;;
79640;SDS011;69115;49.904;14.390;2023-07-13T00:54:57;10.00;;;6.50;;
79640;SDS011;69115;49.904;14.390;2023-07-13T00:57:23;10.65;;;6.15;;
79640;SDS011;69115;49.904;14.390;2023-07-13T00:59:50;8.95;;;6.90;;
79640;SDS011;69115;49.904;14.390;2023-07-13T01:02:17;8.90;;;6.70;;
79640;SDS011;69115;49.904;14.390;2023-07-13T01:04:43;8.93;;;6.70;;
79640;SDS011;69115;49.904;14.390;2023-07-13T01:07:08;8.93;;;6.85;;
79640;SDS011;69115;49.904;14.390;2023-07-13T01:09:34;8.93;;;7.03;;
79640;SDS011;69115;49.904;14.390;2023-07-13T01:12:00;9.48;;;6.57;;
79640;SDS011;69115;49.904;14.390;2023-07-13T01:14:26;8.02;;;6.00;;
79640;SDS011;69115;49.904;14.390;2023-07-13T01:16:51;10.82;;;6.90;;
79640;SDS011;69115;49.904;14.390;2023-07-13T01:19:35;9.18;;;6.95;;
79640;SDS011;69115;49.904;14.390;2023-07-13T01:22:09;8.02;;;6.32;;
79640;SDS011;69115;49.904;14.390;2023-07-13T01:24:38;9.13;;;6.95;;
79640;SDS011;69115;49.904;14.390;2023-07-13T01:27:05;10.18;;;6.65;;
79640;SDS011;69115;49.904;14.390;2023-07-13T01:29:32;7.82;;;6.43;;
79640;SDS011;69115;49.904;14.390;2023-07-13T01:31:58;10.75;;;7.30;;
79640;SDS011;69115;49.904;14.390;2023-07-13T01:34:25;8.23;;;6.55;;
79640;SDS011;69115;49.904;14.390;2023-07-13T01:36:51;10.07;;;6.80;;
79640;SDS011;69115;49.904;14.390;2023-07-13T01:39:18;8.85;;;6.28;;
79640;SDS011;69115;49.904;14.390;2023-07-13T01:41:47;8.98;;;6.45;;
79640;SDS011;69115;49.904;14.390;2023-07-13T01:44:12;9.75;;;6.93;;
79640;SDS011;69115;49.904;14.390;2023-07-13T01:46:37;6.90;;;5.85;;
79640;SDS011;69115;49.904;14.390;2023-07-13T01:49:03;9.68;;;6.68;;
79640;SDS011;69115;49.904;14.390;2023-07-13T01:51:28;10.32;;;6.75;;
79640;SDS011;69115;49.904;14.390;2023-07-13T01:53:53;11.10;;;6.85;;
79640;SDS011;69115;49.904;14.390;2023-07-13T01:56:19;8.38;;;6.72;;
79640;SDS011;69115;49.904;14.390;2023-07-13T01:58:44;10.07;;;6.85;;
79640;SDS011;69115;49.904;14.390;2023-07-13T02:01:10;7.88;;;6.32;;
79640;SDS011;69115;49.904;14.390;2023-07-13T02:03:36;9.35;;;6.88;;
79640;SDS011;69115;49.904;14.390;2023-07-13T02:06:01;8.95;;;6.85;;
79640;SDS011;69115;49.904;14.390;2023-07-13T02:08:26;9.95;;;6.78;;
79640;SDS011;69115;49.904;14.390;2023-07-13T02:10:52;12.05;;;7.85;;
79640;SDS011;69115;49.904;14.390;2023-07-13T02:13:17;8.68;;;6.63;;
79640;SDS011;69115;49.904;14.390;2023-07-13T02:15:43;9.95;;;6.65;;
79640;SDS011;69115;49.904;14.390;2023-07-13T02:18:08;10.55;;;6.28;;
79640;SDS011;69115;49.904;14.390;2023-07-13T02:20:34;9.63;;;6.90;;
79640;SDS011;69115;49.904;14.390;2023-07-13T02:22:59;9.48;;;6.20;;
79640;SDS011;69115;49.904;14.390;2023-07-13T02:25:25;9.95;;;6.35;;
79640;SDS011;69115;49.904;14.390;2023-07-13T02:27:51;9.20;;;6.25;;
79640;SDS011;69115;49.904;14.390;2023-07-13T02:30:17;9.07;;;6.07;;
79640;SDS011;69115;49.904;14.390;2023-07-13T02:32:42;7.28;;;5.18;;
79640;SDS011;69115;49.904;14.390;2023-07-13T02:35:09;9.13;;;6.30;;
79640;SDS011;69115;49.904;14.390;2023-07-13T02:37:34;8.68;;;6.10;;
79640;SDS011;69115;49.904;14.390;2023-07-13T02:40:00;9.23;;;5.70;;
79640;SDS011;69115;49.904;14.390;2023-07-13T02:42:25;8.35;;;5.15;;
79640;SDS011;69115;49.904;14.390;2023-07-13T02:44:51;9.35;;;6.20;;
79640;SDS011;69115;49.904;14.390;2023-07-13T02:47:16;7.03;;;5.43;;
79640;SDS011;69115;49.904;14.390;2023-07-13T02:49:42;7.65;;;5.28;;
79640;SDS011;69115;49.904;14.390;2023-07-13T02:52:07;10.45;;;6.15;;
79640;SDS011;69115;49.904;14.390;2023-07-13T02:54:32;8.45;;;5.63;;
79640;SDS011;69115;49.904;14.390;2023-07-13T02:56:58;9.68;;;5.95;;
79640;SDS011;69115;49.904;14.390;2023-07-13T02:59:23;8.45;;;5.35;;
79640;SDS011;69115;49.904;14.390;2023-07-13T03:01:48;7.53;;;4.72;;
79640;SDS011;69115;49.904;14.390;2023-07-13T03:04:14;5.72;;;4.32;;
79640;SDS011;69115;49.904;14.390;2023-07-13T03:06:39;8.05;;;5.35;;
79640;SDS011;69115;49.904;14.390;2023-07-13T03:09:05;9.55;;;5.60;;
79640;SDS011;69115;49.904;14.390;2023-07-13T03:11:30;11.77;;;6.28;;
79640;SDS011;69115;49.904;14.390;2023-07-13T03:13:56;8.38;;;5.50;;
79640;SDS011;69115;49.904;14.390;2023-07-13T03:16:22;8.13;;;5.60;;
79640;SDS011;69115;49.904;14.390;2023-07-13T03:18:47;7.80;;;5.78;;
79640;SDS011;69115;49.904;14.390;2023-07-13T03:21:13;9.85;;;5.45;;
79640;SDS011;69115;49.904;14.390;2023-07-13T03:23:38;7.10;;;5.55;;
79640;SDS011;69115;49.904;14.390;2023-07-13T03:26:05;7.85;;;5.82;;
79640;SDS011;69115;49.904;14.390;2023-07-13T03:28:32;8.68;;;5.90;;
79640;SDS011;69115;49.904;14.390;2023-07-13T03:30:59;7.28;;;5.72;;
79640;SDS011;69115;49.904;14.390;2023-07-13T03:35:53;8.47;;;5.57;;
79640;SDS011;69115;49.904;14.390;2023-07-13T03:38:18;7.32;;;5.38;;
79640;SDS011;69115;49.904;14.390;2023-07-13T03:40:44;8.05;;;5.32;;
79640;SDS011;69115;49.904;14.390;2023-07-13T03:43:10;6.63;;;5.18;;
79640;SDS011;69115;49.904;14.390;2023-07-13T03:45:37;8.20;;;6.05;;
79640;SDS011;69115;49.904;14.390;2023-07-13T03:48:03;8.60;;;5.53;;
79640;SDS011;69115;49.904;14.390;2023-07-13T03:50:30;8.50;;;5.50;;
79640;SDS011;69115;49.904;14.390;2023-07-13T03:52:56;8.43;;;5.47;;
79640;SDS011;69115;49.904;14.390;2023-07-13T03:55:22;9.35;;;6.30;;
79640;SDS011;69115;49.904;14.390;2023-07-13T03:57:52;8.77;;;5.65;;
79640;SDS011;69115;49.904;14.390;2023-07-13T04:00:23;6.40;;;4.57;;
79640;SDS011;69115;49.904;14.390;2023-07-13T04:02:49;8.65;;;5.45;;
79640;SDS011;69115;49.904;14.390;2023-07-13T04:05:14;8.75;;;5.85;;
79640;SDS011;69115;49.904;14.390;2023-07-13T04:07:40;9.52;;;5.53;;
79640;SDS011;69115;49.904;14.390;2023-07-13T04:10:05;9.35;;;5.25;;
79640;SDS011;69115;49.904;14.390;2023-07-13T04:12:31;8.35;;;6.25;;
79640;SDS011;69115;49.904;14.390;2023-07-13T04:14:56;8.48;;;5.35;;
79640;SDS011;69115;49.904;14.390;2023-07-13T04:17:22;7.18;;;4.80;;
79640;SDS011;69115;49.904;14.390;2023-07-13T04:19:47;9.88;;;6.53;;
79640;SDS011;69115;49.904;14.390;2023-07-13T04:22:13;8.45;;;5.45;;
79640;SDS011;69115;49.904;14.390;2023-07-13T04:24:39;7.18;;;5.20;;
79640;SDS011;69115;49.904;14.390;2023-07-13T04:27:04;8.10;;;5.90;;
79640;SDS011;69115;49.904;14.390;2023-07-13T04:29:30;6.85;;;5.32;;
79640;SDS011;69115;49.904;14.390;2023-07-13T04:31:55;8.60;;;5.82;;
79640;SDS011;69115;49.904;14.390;2023-07-13T04:34:21;9.10;;;5.60;;
79640;SDS011;69115;49.904;14.390;2023-07-13T04:36:46;7.32;;;5.68;;
79640;SDS011;69115;49.904;14.390;2023-07-13T04:39:11;8.98;;;5.55;;
79640;SDS011;69115;49.904;14.390;2023-07-13T04:41:37;8.00;;;5.55;;
79640;SDS011;69115;49.904;14.390;2023-07-13T04:44:02;8.07;;;5.40;;
79640;SDS011;69115;49.904;14.390;2023-07-13T04:46:28;9.10;;;5.97;;
79640;SDS011;69115;49.904;14.390;2023-07-13T04:48:53;6.63;;;5.38;;
79640;SDS011;69115;49.904;14.390;2023-07-13T04:51:19;8.05;;;5.18;;
79640;SDS011;69115;49.904;14.390;2023-07-13T04:53:44;8.77;;;6.00;;
79640;SDS011;69115;49.904;14.390;2023-07-13T04:56:10;8.00;;;5.63;;
79640;SDS011;69115;49.904;14.390;2023-07-13T04:58:35;7.90;;;5.30;;
79640;SDS011;69115;49.904;14.390;2023-07-13T05:01:01;6.97;;;5.15;;
79640;SDS011;69115;49.904;14.390;2023-07-13T05:03:28;7.90;;;5.40;;
79640;SDS011;69115;49.904;14.390;2023-07-13T05:05:57;7.38;;;4.53;;
79640;SDS011;69115;49.904;14.390;2023-07-13T05:08:23;5.53;;;3.90;;
79640;SDS011;69115;49.904;14.390;2023-07-13T05:10:49;5.35;;;3.70;;
79640;SDS011;69115;49.904;14.390;2023-07-13T05:13:15;5.70;;;4.00;;
79640;SDS011;69115;49.904;14.390;2023-07-13T05:15:41;6.63;;;4.00;;
79640;SDS011;69115;49.904;14.390;2023-07-13T05:18:06;5.05;;;3.63;;
79640;SDS011;69115;49.904;14.390;2023-07-13T05:20:31;6.97;;;4.68;;
79640;SDS011;69115;49.904;14.390;2023-07-13T05:22:57;10.07;;;4.28;;
79640;SDS011;69115;49.904;14.390;2023-07-13T05:25:22;7.00;;;3.90;;
79640;SDS011;69115;49.904;14.390;2023-07-13T05:27:48;8.43;;;3.63;;
79640;SDS011;69115;49.904;14.390;2023-07-13T05:30:13;5.90;;;3.58;;
79640;SDS011;69115;49.904;14.390;2023-07-13T05:32:39;4.85;;;3.50;;
79640;SDS011;69115;49.904;14.390;2023-07-13T05:35:04;5.88;;;3.08;;
79640;SDS011;69115;49.904;14.390;2023-07-13T05:37:30;4.82;;;2.95;;
79640;SDS011;69115;49.904;14.390;2023-07-13T05:39:55;5.47;;;3.13;;
79640;SDS011;69115;49.904;14.390;2023-07-13T05:42:21;4.20;;;2.90;;
79640;SDS011;69115;49.904;14.390;2023-07-13T05:44:46;4.07;;;2.92;;
79640;SDS011;69115;49.904;14.390;2023-07-13T05:47:11;8.15;;;2.80;;
79640;SDS011;69115;49.904;14.390;2023-07-13T05:49:39;4.10;;;2.90;;
79640;SDS011;69115;49.904;14.390;2023-07-13T05:52:04;5.30;;;2.80;;
79640;SDS011;69115;49.904;14.390;2023-07-13T05:54:30;3.95;;;3.00;;
79640;SDS011;69115;49.904;14.390;2023-07-13T05:56:55;4.20;;;3.17;;
79640;SDS011;69115;49.904;14.390;2023-07-13T05:59:21;5.60;;;3.20;;
79640;SDS011;69115;49.904;14.390;2023-07-13T06:01:46;3.58;;;2.80;;
79640;SDS011;69115;49.904;14.390;2023-07-13T06:04:11;3.75;;;2.92;;
79640;SDS011;69115;49.904;14.390;2023-07-13T06:06:37;5.20;;;3.30;;
79640;SDS011;69115;49.904;14.390;2023-07-13T06:09:02;7.47;;;3.25;;
79640;SDS011;69115;49.904;14.390;2023-07-13T06:11:27;5.30;;;3.13;;
79640;SDS011;69115;49.904;14.390;2023-07-13T06:13:55;5.90;;;2.90;;
79640;SDS011;69115;49.904;14.390;2023-07-13T06:16:21;4.00;;;2.95;;
79640;SDS011;69115;49.904;14.390;2023-07-13T06:18:46;5.32;;;3.00;;
79640;SDS011;69115;49.904;14.390;2023-07-13T06:21:13;5.30;;;3.03;;
79640;SDS011;69115;49.904;14.390;2023-07-13T06:23:40;4.65;;;3.00;;
79640;SDS011;69115;49.904;14.390;2023-07-13T06:26:05;5.72;;;3.30;;
79640;SDS011;69115;49.904;14.390;2023-07-13T06:28:31;5.15;;;2.85;;
79640;SDS011;69115;49.904;14.390;2023-07-13T06:30:57;4.75;;;2.90;;
79640;SDS011;69115;49.904;14.390;2023-07-13T06:33:23;4.15;;;3.00;;
79640;SDS011;69115;49.904;14.390;2023-07-13T06:35:49;6.07;;;3.40;;
79640;SDS011;69115;49.904;14.390;2023-07-13T06:38:15;4.63;;;3.00;;
79640;SDS011;69115;49.904;14.390;2023-07-13T06:40:40;5.18;;;3.15;;
79640;SDS011;69115;49.904;14.390;2023-07-13T06:43:06;5.05;;;3.33;;
79640;SDS011;69115;49.904;14.390;2023-07-13T06:45:32;5.20;;;3.13;;
79640;SDS011;69115;49.904;14.390;2023-07-13T06:48:05;3.63;;;2.95;;
79640;SDS011;69115;49.904;14.390;2023-07-13T06:50:30;4.78;;;3.00;;
79640;SDS011;69115;49.904;14.390;2023-07-13T06:52:56;5.82;;;3.22;;
79640;SDS011;69115;49.904;14.390;2023-07-13T06:55:21;4.05;;;3.00;;
79640;SDS011;69115;49.904;14.390;2023-07-13T06:57:46;5.88;;;3.05;;
79640;SDS011;69115;49.904;14.390;2023-07-13T07:00:12;4.13;;;2.90;;
79640;SDS011;69115;49.904;14.390;2023-07-13T07:02:38;6.20;;;2.75;;
79640;SDS011;69115;49.904;14.390;2023-07-13T07:05:03;4.50;;;2.60;;
79640;SDS011;69115;49.904;14.390;2023-07-13T07:07:29;5.50;;;2.53;;
79640;SDS011;69115;49.904;14.390;2023-07-13T07:09:54;3.50;;;2.90;;
79640;SDS011;69115;49.904;14.390;2023-07-13T07:12:20;4.30;;;2.60;;
79640;SDS011;69115;49.904;14.390;2023-07-13T07:14:46;4.15;;;2.80;;
79640;SDS011;69115;49.904;14.390;2023-07-13T07:17:12;4.20;;;2.85;;
79640;SDS011;69115;49.904;14.390;2023-07-13T07:19:37;4.05;;;2.63;;
79640;SDS011;69115;49.904;14.390;2023-07-13T07:22:03;5.13;;;2.72;;
79640;SDS011;69115;49.904;14.390;2023-07-13T07:24:29;3.42;;;2.63;;
79640;SDS011;69115;49.904;14.390;2023-07-13T07:26:54;4.55;;;3.10;;
79640;SDS011;69115;49.904;14.390;2023-07-13T07:29:20;4.28;;;2.70;;
79640;SDS011;69115;49.904;14.390;2023-07-13T07:31:45;6.03;;;2.85;;
79640;SDS011;69115;49.904;14.390;2023-07-13T07:34:11;3.40;;;2.63;;
79640;SDS011;69115;49.904;14.390;2023-07-13T07:36:36;5.00;;;3.08;;
79640;SDS011;69115;49.904;14.390;2023-07-13T07:39:08;3.70;;;2.90;;
79640;SDS011;69115;49.904;14.390;2023-07-13T07:41:33;4.40;;;2.50;;
79640;SDS011;69115;49.904;14.390;2023-07-13T07:43:58;4.03;;;2.55;;
79640;SDS011;69115;49.904;14.390;2023-07-13T07:46:24;3.80;;;2.55;;
79640;SDS011;69115;49.904;14.390;2023-07-13T07:48:49;3.45;;;2.58;;
79640;SDS011;69115;49.904;14.390;2023-07-13T07:51:15;4.30;;;2.70;;
79640;SDS011;69115;49.904;14.390;2023-07-13T07:53:41;3.97;;;2.60;;
79640;SDS011;69115;49.904;14.390;2023-07-13T07:56:06;4.53;;;2.85;;
79640;SDS011;69115;49.904;14.390;2023-07-13T07:58:32;5.18;;;3.10;;
79640;SDS011;69115;49.904;14.390;2023-07-13T08:01:04;4.40;;;2.78;;
79640;SDS011;69115;49.904;14.390;2023-07-13T08:03:30;5.97;;;2.80;;
79640;SDS011;69115;49.904;14.390;2023-07-13T08:05:56;4.45;;;2.80;;
79640;SDS011;69115;49.904;14.390;2023-07-13T08:08:22;5.88;;;2.58;;
79640;SDS011;69115;49.904;14.390;2023-07-13T08:10:47;4.57;;;2.30;;
79640;SDS011;69115;49.904;14.390;2023-07-13T08:13:12;5.30;;;2.75;;
79640;SDS011;69115;49.904;14.390;2023-07-13T08:15:38;4.38;;;2.53;;
79640;SDS011;69115;49.904;14.390;2023-07-13T08:18:03;4.00;;;2.83;;
79640;SDS011;69115;49.904;14.390;2023-07-13T08:20:29;3.83;;;2.53;;
79640;SDS011;69115;49.904;14.390;2023-07-13T08:22:54;3.95;;;2.67;;
79640;SDS011;69115;49.904;14.390;2023-07-13T08:25:20;4.40;;;2.80;;
79640;SDS011;69115;49.904;14.390;2023-07-13T08:27:46;4.13;;;2.50;;
79640;SDS011;69115;49.904;14.390;2023-07-13T08:30:12;4.25;;;2.50;;
79640;SDS011;69115;49.904;14.390;2023-07-13T08:32:37;3.58;;;2.70;;
79640;SDS011;69115;49.904;14.390;2023-07-13T08:35:04;4.05;;;2.85;;
79640;SDS011;69115;49.904;14.390;2023-07-13T08:37:30;4.65;;;2.60;;
79640;SDS011;69115;49.904;14.390;2023-07-13T08:39:55;4.35;;;2.55;;
79640;SDS011;69115;49.904;14.390;2023-07-13T08:42:32;6.90;;;2.65;;
79640;SDS011;69115;49.904;14.390;2023-07-13T08:45:21;4.95;;;2.50;;
79640;SDS011;69115;49.904;14.390;2023-07-13T08:47:51;3.92;;;2.40;;
79640;SDS011;69115;49.904;14.390;2023-07-13T08:50:19;4.40;;;2.88;;
79640;SDS011;69115;49.904;14.390;2023-07-13T08:52:49;4.75;;;2.80;;
79640;SDS011;69115;49.904;14.390;2023-07-13T08:55:15;5.68;;;2.50;;
79640;SDS011;69115;49.904;14.390;2023-07-13T08:57:43;4.18;;;2.80;;
79640;SDS011;69115;49.904;14.390;2023-07-13T09:00:11;3.65;;;2.47;;
79640;SDS011;69115;49.904;14.390;2023-07-13T09:02:56;3.63;;;2.50;;
79640;SDS011;69115;49.904;14.390;2023-07-13T09:10:42;4.47;;;2.78;;
79640;SDS011;69115;49.904;14.390;2023-07-13T09:13:16;6.10;;;2.67;;
79640;SDS011;69115;49.904;14.390;2023-07-13T09:15:46;6.68;;;2.53;;
79640;SDS011;69115;49.904;14.390;2023-07-13T09:20:54;7.32;;;2.60;;
79640;SDS011;69115;49.904;14.390;2023-07-13T09:23:27;4.20;;;2.28;;
79640;SDS011;69115;49.904;14.390;2023-07-13T09:26:18;5.63;;;2.72;;
79640;SDS011;69115;49.904;14.390;2023-07-13T09:28:47;6.68;;;2.50;;
79640;SDS011;69115;49.904;14.390;2023-07-13T09:31:19;3.78;;;2.40;;
79640;SDS011;69115;49.904;14.390;2023-07-13T09:33:47;4.22;;;2.70;;
79640;SDS011;69115;49.904;14.390;2023-07-13T09:36:18;5.93;;;2.50;;
79640;SDS011;69115;49.904;14.390;2023-07-13T09:38:44;4.32;;;2.40;;
79640;SDS011;69115;49.904;14.390;2023-07-13T09:44:14;5.18;;;2.22;;
79640;SDS011;69115;49.904;14.390;2023-07-13T09:46:45;5.60;;;2.60;;
79640;SDS011;69115;49.904;14.390;2023-07-13T09:49:27;3.03;;;2.20;;
79640;SDS011;69115;49.904;14.390;2023-07-13T09:51:58;6.35;;;2.75;;
79640;SDS011;69115;49.904;14.390;2023-07-13T09:54:25;6.03;;;2.50;;
79640;SDS011;69115;49.904;14.390;2023-07-13T09:56:54;5.57;;;2.55;;
79640;SDS011;69115;49.904;14.390;2023-07-13T09:59:27;5.00;;;2.28;;
79640;SDS011;69115;49.904;14.390;2023-07-13T10:02:24;4.28;;;2.25;;
79640;SDS011;69115;49.904;14.390;2023-07-13T10:04:57;4.43;;;2.33;;
79640;SDS011;69115;49.904;14.390;2023-07-13T10:07:24;3.95;;;2.17;;
79640;SDS011;69115;49.904;14.390;2023-07-13T10:09:56;4.22;;;2.20;;
79640;SDS011;69115;49.904;14.390;2023-07-13T10:14:54;3.50;;;2.10;;
79640;SDS011;69115;49.904;14.390;2023-07-13T10:17:26;3.65;;;2.40;;
79640;SDS011;69115;49.904;14.390;2023-07-13T10:19:56;3.85;;;2.22;;
79640;SDS011;69115;49.904;14.390;2023-07-13T10:25:18;3.28;;;2.30;;
79640;SDS011;69115;49.904;14.390;2023-07-13T10:27:45;5.13;;;2.35;;
79640;SDS011;69115;49.904;14.390;2023-07-13T10:32:45;6.88;;;2.50;;
79640;SDS011;69115;49.904;14.390;2023-07-13T10:35:11;3.72;;;2.28;;
79640;SDS011;69115;49.904;14.390;2023-07-13T10:37:44;6.60;;;2.20;;
79640;SDS011;69115;49.904;14.390;2023-07-13T10:40:15;5.72;;;2.30;;
79640;SDS011;69115;49.904;14.390;2023-07-13T10:42:44;6.03;;;2.22;;
79640;SDS011;69115;49.904;14.390;2023-07-13T10:45:12;4.90;;;2.40;;
79640;SDS011;69115;49.904;14.390;2023-07-13T10:47:39;4.72;;;2.30;;
79640;SDS011;69115;49.904;14.390;2023-07-13T10:50:05;4.97;;;2.45;;
79640;SDS011;69115;49.904;14.390;2023-07-13T10:52:41;5.10;;;2.40;;
79640;SDS011;69115;49.904;14.390;2023-07-13T10:55:31;3.60;;;2.38;;
79640;SDS011;69115;49.904;14.390;2023-07-13T10:58:20;5.55;;;2.53;;
79640;SDS011;69115;49.904;14.390;2023-07-13T11:03:36;3.50;;;2.42;;
79640;SDS011;69115;49.904;14.390;2023-07-13T11:06:13;4.97;;;2.25;;
79640;SDS011;69115;49.904;14.390;2023-07-13T11:08:57;4.43;;;2.40;;
79640;SDS011;69115;49.904;14.390;2023-07-13T11:18:45;5.45;;;2.70;;
79640;SDS011;69115;49.904;14.390;2023-07-13T11:21:18;5.05;;;2.00;;
79640;SDS011;69115;49.904;14.390;2023-07-13T11:23:54;3.50;;;2.40;;
79640;SDS011;69115;49.904;14.390;2023-07-13T11:26:50;3.95;;;2.42;;
79640;SDS011;69115;49.904;14.390;2023-07-13T11:31:43;4.43;;;2.30;;
79640;SDS011;69115;49.904;14.390;2023-07-13T11:34:15;4.30;;;2.53;;
79640;SDS011;69115;49.904;14.390;2023-07-13T11:36:42;5.13;;;2.10;;
79640;SDS011;69115;49.904;14.390;2023-07-13T11:39:13;3.90;;;2.28;;
79640;SDS011;69115;49.904;14.390;2023-07-13T11:41:44;2.83;;;1.83;;
79640;SDS011;69115;49.904;14.390;2023-07-13T11:44:16;3.85;;;2.00;;
79640;SDS011;69115;49.904;14.390;2023-07-13T11:46:45;4.55;;;2.40;;
79640;SDS011;69115;49.904;14.390;2023-07-13T11:49:30;3.38;;;2.05;;
79640;SDS011;69115;49.904;14.390;2023-07-13T11:51:57;5.45;;;2.45;;
79640;SDS011;69115;49.904;14.390;2023-07-13T11:54:25;5.03;;;2.38;;
79640;SDS011;69115;49.904;14.390;2023-07-13T11:56:58;5.30;;;2.20;;
79640;SDS011;69115;49.904;14.390;2023-07-13T11:59:26;5.57;;;2.40;;
79640;SDS011;69115;49.904;14.390;2023-07-13T12:01:52;4.85;;;2.20;;
79640;SDS011;69115;49.904;14.390;2023-07-13T12:04:20;4.78;;;2.30;;
79640;SDS011;69115;49.904;14.390;2023-07-13T12:06:48;8.93;;;2.65;;
79640;SDS011;69115;49.904;14.390;2023-07-13T12:09:29;5.75;;;2.42;;
79640;SDS011;69115;49.904;14.390;2023-07-13T12:11:56;3.83;;;2.30;;
79640;SDS011;69115;49.904;14.390;2023-07-13T12:14:22;6.45;;;2.50;;
79640;SDS011;69115;49.904;14.390;2023-07-13T12:16:50;3.03;;;2.20;;
79640;SDS011;69115;49.904;14.390;2023-07-13T12:19:17;3.55;;;2.20;;
79640;SDS011;69115;49.904;14.390;2023-07-13T12:21:54;3.60;;;2.13;;
79640;SDS011;69115;49.904;14.390;2023-07-13T12:24:22;4.28;;;2.17;;
79640;SDS011;69115;49.904;14.390;2023-07-13T12:26:52;3.72;;;2.30;;
79640;SDS011;69115;49.904;14.390;2023-07-13T12:29:19;3.20;;;2.50;;
79640;SDS011;69115;49.904;14.390;2023-07-13T12:31:45;3.47;;;2.17;;
79640;SDS011;69115;49.904;14.390;2023-07-13T12:34:17;6.30;;;2.55;;
79640;SDS011;69115;49.904;14.390;2023-07-13T12:39:22;4.18;;;2.40;;
79640;SDS011;69115;49.904;14.390;2023-07-13T12:42:19;4.55;;;2.50;;
79640;SDS011;69115;49.904;14.390;2023-07-13T12:44:50;3.83;;;2.30;;
79640;SDS011;69115;49.904;14.390;2023-07-13T12:47:16;4.05;;;2.65;;
79640;SDS011;69115;49.904;14.390;2023-07-13T12:49:49;4.18;;;2.70;;
79640;SDS011;69115;49.904;14.390;2023-07-13T12:52:24;3.85;;;2.20;;
79640;SDS011;69115;49.904;14.390;2023-07-13T12:55:19;4.00;;;2.63;;
79640;SDS011;69115;49.904;14.390;2023-07-13T12:57:54;4.32;;;2.25;;
79640;SDS011;69115;49.904;14.390;2023-07-13T13:03:05;3.33;;;2.30;;
79640;SDS011;69115;49.904;14.390;2023-07-13T13:05:32;5.28;;;2.65;;
79640;SDS011;69115;49.904;14.390;2023-07-13T13:07:58;5.05;;;2.28;;
79640;SDS011;69115;49.904;14.390;2023-07-13T13:10:25;3.50;;;2.45;;
79640;SDS011;69115;49.904;14.390;2023-07-13T13:12:51;3.95;;;2.40;;
79640;SDS011;69115;49.904;14.390;2023-07-13T13:15:17;3.42;;;2.25;;
79640;SDS011;69115;49.904;14.390;2023-07-13T13:17:43;3.83;;;2.60;;
79640;SDS011;69115;49.904;14.390;2023-07-13T13:20:13;3.58;;;2.20;;
79640;SDS011;69115;49.904;14.390;2023-07-13T13:22:41;3.60;;;2.35;;
79640;SDS011;69115;49.904;14.390;2023-07-13T13:25:09;3.17;;;2.30;;
79640;SDS011;69115;49.904;14.390;2023-07-13T13:27:38;3.97;;;2.40;;
79640;SDS011;69115;49.904;14.390;2023-07-13T13:30:09;3.60;;;2.20;;
79640;SDS011;69115;49.904;14.390;2023-07-13T13:32:35;4.97;;;2.50;;
79640;SDS011;69115;49.904;14.390;2023-07-13T13:35:01;4.97;;;2.30;;
79640;SDS011;69115;49.904;14.390;2023-07-13T13:37:26;4.63;;;2.20;;
79640;SDS011;69115;49.904;14.390;2023-07-13T13:39:52;3.17;;;2.28;;
79640;SDS011;69115;49.904;14.390;2023-07-13T13:42:18;4.75;;;2.55;;
79640;SDS011;69115;49.904;14.390;2023-07-13T13:44:46;2.97;;;2.30;;
79640;SDS011;69115;49.904;14.390;2023-07-13T13:50:17;3.90;;;2.17;;
79640;SDS011;69115;49.904;14.390;2023-07-13T13:52:45;3.20;;;2.40;;
79640;SDS011;69115;49.904;14.390;2023-07-13T13:55:20;3.25;;;2.22;;
79640;SDS011;69115;49.904;14.390;2023-07-13T13:57:48;3.33;;;2.10;;
79640;SDS011;69115;49.904;14.390;2023-07-13T14:00:14;4.57;;;2.38;;
79640;SDS011;69115;49.904;14.390;2023-07-13T14:02:42;3.88;;;2.35;;
79640;SDS011;69115;49.904;14.390;2023-07-13T14:05:13;3.42;;;2.10;;
79640;SDS011;69115;49.904;14.390;2023-07-13T14:07:38;2.97;;;2.30;;
79640;SDS011;69115;49.904;14.390;2023-07-13T14:10:08;3.58;;;2.20;;
79640;SDS011;69115;49.904;14.390;2023-07-13T14:12:40;3.58;;;2.20;;
79640;SDS011;69115;49.904;14.390;2023-07-13T14:15:08;3.83;;;2.53;;
79640;SDS011;69115;49.904;14.390;2023-07-13T14:17:41;4.68;;;2.30;;
79640;SDS011;69115;49.904;14.390;2023-07-13T14:20:10;4.32;;;2.38;;
79640;SDS011;69115;49.904;14.390;2023-07-13T14:22:37;5.05;;;2.40;;
79640;SDS011;69115;49.904;14.390;2023-07-13T14:25:03;5.82;;;2.17;;
79640;SDS011;69115;49.904;14.390;2023-07-13T14:27:28;6.25;;;2.50;;
79640;SDS011;69115;49.904;14.390;2023-07-13T14:29:54;4.10;;;2.30;;
79640;SDS011;69115;49.904;14.390;2023-07-13T14:32:20;4.05;;;2.30;;
79640;SDS011;69115;49.904;14.390;2023-07-13T14:34:45;4.88;;;2.20;;
79640;SDS011;69115;49.904;14.390;2023-07-13T14:37:14;4.20;;;2.40;;
79640;SDS011;69115;49.904;14.390;2023-07-13T14:39:42;6.82;;;2.10;;
79640;SDS011;69115;49.904;14.390;2023-07-13T14:42:08;5.30;;;2.33;;
79640;SDS011;69115;49.904;14.390;2023-07-13T14:44:35;2.97;;;2.17;;
79640;SDS011;69115;49.904;14.390;2023-07-13T14:47:03;3.15;;;2.20;;
79640;SDS011;69115;49.904;14.390;2023-07-13T14:49:32;3.40;;;2.13;;
79640;SDS011;69115;49.904;14.390;2023-07-13T14:52:02;5.22;;;2.30;;
79640;SDS011;69115;49.904;14.390;2023-07-13T14:54:31;4.07;;;2.35;;
79640;SDS011;69115;49.904;14.390;2023-07-13T14:56:56;3.67;;;2.20;;
79640;SDS011;69115;49.904;14.390;2023-07-13T14:59:22;3.30;;;2.33;;
79640;SDS011;69115;49.904;14.390;2023-07-13T15:01:49;5.03;;;2.20;;
79640;SDS011;69115;49.904;14.390;2023-07-13T15:04:15;5.60;;;2.30;;
79640;SDS011;69115;49.904;14.390;2023-07-13T15:06:57;3.97;;;2.22;;
79640;SDS011;69115;49.904;14.390;2023-07-13T15:09:26;3.60;;;2.53;;
79640;SDS011;69115;49.904;14.390;2023-07-13T15:11:54;5.68;;;2.50;;
79640;SDS011;69115;49.904;14.390;2023-07-13T15:14:23;5.10;;;2.50;;
79640;SDS011;69115;49.904;14.390;2023-07-13T15:16:50;5.35;;;2.38;;
79640;SDS011;69115;49.904;14.390;2023-07-13T15:19:17;4.80;;;2.00;;
79640;SDS011;69115;49.904;14.390;2023-07-13T15:21:43;4.72;;;2.13;;